Terminal Aerodrome Forecast
Issued by NWS

Home | Current Version | Previous Version | Text Only | Print | Product List | Glossary On
Versions: 1 2 3 4 5 6 7 8 9 10 11 12 13
000
FTUS43 KOAX 211723
TAFBFF
TAF
KBFF 211723Z 2118/2218 VRB06KT P6SM SCT150 SCT250
     FM211900 27018G28KT P6SM SCT050 BKN080
     FM212200 30015G25KT P6SM VCSH SCT030 OVC050
     FM220300 31014G22KT P6SM SCT020 BKN050=

USA.gov is the U.S. government's official web portal to all federal, state and local government web resources and services.